createdAt,value
2019-02-22T00:00:36.987Z,0.00
2019-02-22T00:01:36.970Z,0.00
2019-02-22T00:02:36.990Z,0.00
2019-02-22T00:03:36.979Z,0.00
2019-02-22T00:04:36.980Z,0.00
2019-02-22T00:05:36.911Z,0.00
2019-02-22T00:06:36.936Z,0.00
2019-02-22T00:07:36.900Z,0.00
2019-02-22T00:08:36.895Z,0.00
2019-02-22T00:09:36.908Z,0.00
2019-02-22T00:10:36.874Z,0.00
2019-02-22T00:11:36.846Z,0.00
2019-02-22T00:12:36.844Z,0.00
2019-02-22T00:13:36.906Z,0.00
2019-02-22T00:14:36.907Z,0.00
2019-02-22T00:15:36.821Z,0.00
2019-02-22T00:16:36.800Z,0.00
2019-02-22T00:17:36.803Z,0.00
2019-02-22T00:18:36.774Z,0.00
2019-02-22T00:19:36.775Z,0.00
2019-02-22T00:20:36.779Z,0.00
2019-02-22T00:21:36.748Z,0.00
2019-02-22T00:22:36.726Z,0.00
2019-02-22T00:23:36.749Z,0.00
2019-02-22T00:24:36.709Z,0.00
2019-02-22T00:25:36.795Z,0.00
2019-02-22T00:26:36.698Z,0.00
2019-02-22T00:27:36.676Z,0.00
2019-02-22T00:28:36.686Z,0.00
2019-02-22T00:29:36.652Z,0.00
2019-02-22T00:30:36.694Z,0.00
2019-02-22T00:31:36.698Z,0.00
2019-02-22T00:32:36.662Z,0.00
2019-02-22T00:33:36.606Z,0.00
2019-02-22T00:34:36.612Z,0.00
2019-02-22T00:35:36.617Z,0.00
2019-02-22T00:36:36.719Z,0.00
2019-02-22T00:37:36.644Z,0.00
2019-02-22T00:38:36.561Z,0.00
2019-02-22T00:41:00.495Z,0.00
2019-02-22T00:41:45.854Z,0.00
2019-02-22T00:42:45.814Z,0.00
2019-02-22T00:43:45.804Z,0.00
2019-02-22T00:44:45.798Z,0.00
2019-02-22T00:45:45.783Z,0.00
2019-02-22T00:46:45.805Z,0.00
2019-02-22T00:47:45.766Z,0.00
2019-02-22T00:48:45.759Z,0.00
2019-02-22T00:49:45.748Z,0.00
2019-02-22T00:50:45.744Z,0.00
2019-02-22T00:51:45.734Z,0.00
2019-02-22T00:52:45.735Z,0.00
2019-02-22T00:53:45.702Z,0.00
2019-02-22T00:54:45.685Z,0.00
2019-02-22T00:55:45.675Z,0.00
2019-02-22T00:56:45.684Z,0.00
2019-02-22T00:57:45.682Z,0.00
2019-02-22T00:58:45.664Z,0.00
2019-02-22T00:59:45.632Z,0.00
2019-02-22T01:00:45.618Z,0.00
2019-02-22T01:01:45.612Z,0.00
2019-02-22T01:02:45.616Z,0.00
2019-02-22T01:03:45.602Z,0.00
2019-02-22T01:04:45.578Z,0.00
2019-02-22T01:05:45.566Z,0.00
2019-02-22T01:06:45.553Z,0.00
2019-02-22T01:07:45.599Z,0.00
2019-02-22T01:08:45.533Z,0.00
2019-02-22T01:09:45.530Z,0.00
2019-02-22T01:10:45.512Z,0.00
2019-02-22T01:11:45.512Z,0.00
2019-02-22T01:12:45.486Z,0.00
2019-02-22T01:13:45.499Z,0.00
2019-02-22T01:14:45.475Z,0.00
2019-02-22T01:15:45.453Z,0.00
2019-02-22T01:16:45.445Z,0.00
2019-02-22T01:17:45.441Z,0.00
2019-02-22T01:18:45.449Z,0.00
2019-02-22T01:19:45.411Z,0.00
2019-02-22T01:20:54.020Z,0.00
2019-02-22T01:21:46.409Z,0.00
2019-02-22T01:22:45.379Z,0.00
2019-02-22T01:23:45.387Z,0.00
2019-02-22T01:24:45.404Z,0.00
2019-02-22T01:25:45.342Z,0.00
2019-02-22T01:26:45.333Z,0.00
2019-02-22T01:27:45.365Z,0.00
2019-02-22T01:28:45.319Z,0.00
2019-02-22T01:29:45.304Z,0.00
2019-02-22T01:30:45.315Z,0.00
2019-02-22T01:31:45.284Z,0.00
2019-02-22T01:32:45.380Z,0.00
2019-02-22T01:33:45.275Z,0.00
2019-02-22T01:34:45.251Z,0.00
2019-02-22T01:35:45.302Z,0.00
2019-02-22T01:36:45.228Z,0.00
2019-02-22T01:37:45.220Z,0.00
2019-02-22T01:38:45.225Z,0.00
2019-02-22T01:39:45.191Z,0.00
2019-02-22T01:40:45.193Z,0.00
2019-02-22T01:41:45.166Z,0.00
2019-02-22T01:42:45.159Z,0.00
2019-02-22T01:43:45.174Z,0.00
2019-02-22T01:44:45.142Z,0.00
2019-02-22T01:45:45.141Z,0.00
2019-02-22T01:46:45.128Z,0.00
2019-02-22T01:47:45.100Z,0.00
2019-02-22T01:48:45.092Z,0.00
2019-02-22T01:49:45.111Z,0.00
2019-02-22T01:50:45.066Z,0.00
2019-02-22T01:51:45.068Z,0.00
2019-02-22T01:52:45.042Z,0.00
2019-02-22T01:53:45.032Z,0.00
2019-02-22T01:54:45.049Z,0.00
2019-02-22T01:55:45.053Z,0.00
2019-02-22T01:56:44.999Z,0.00
2019-02-22T01:57:44.996Z,0.00
2019-02-22T01:58:48.700Z,0.00
2019-02-22T01:59:45.007Z,0.00
2019-02-22T02:00:44.959Z,0.00
2019-02-22T02:01:44.945Z,0.00
2019-02-22T02:02:44.931Z,0.00
2019-02-22T02:03:44.941Z,0.00
2019-02-22T02:04:45.021Z,0.00
2019-02-22T02:05:44.929Z,0.00
2019-02-22T02:06:44.891Z,0.00
2019-02-22T02:07:44.882Z,0.00
2019-02-22T02:08:44.873Z,0.00
2019-02-22T02:09:44.872Z,0.00
2019-02-22T02:10:53.938Z,0.00
2019-02-22T02:11:45.849Z,0.00
2019-02-22T02:12:44.823Z,0.00
2019-02-22T02:13:44.813Z,0.00
2019-02-22T02:14:44.806Z,0.00
2019-02-22T02:15:44.809Z,0.00
2019-02-22T02:16:44.777Z,0.00
2019-02-22T02:17:44.770Z,0.00
2019-02-22T02:18:44.793Z,0.00
2019-02-22T02:19:44.743Z,0.00
2019-02-22T02:20:44.746Z,0.00
2019-02-22T02:21:44.759Z,0.00
2019-02-22T02:22:45.442Z,0.00
2019-02-22T02:23:44.702Z,0.00
2019-02-22T02:24:44.697Z,0.00
2019-02-22T02:25:44.681Z,0.00
2019-02-22T02:26:44.687Z,0.00
2019-02-22T02:27:44.727Z,0.00
2019-02-22T02:28:44.650Z,0.00
2019-02-22T02:29:44.638Z,0.00
2019-02-22T02:30:44.627Z,0.00
2019-02-22T02:31:44.648Z,0.00
2019-02-22T02:32:44.611Z,0.00
2019-02-22T02:33:44.593Z,0.00
2019-02-22T02:34:44.580Z,0.00
2019-02-22T02:35:44.569Z,0.00
2019-02-22T02:36:44.596Z,0.00
2019-02-22T02:37:44.562Z,0.00
2019-02-22T02:38:44.541Z,0.00
2019-02-22T02:39:44.525Z,0.00
2019-02-22T02:40:44.519Z,0.00
2019-02-22T02:41:44.539Z,0.00
2019-02-22T02:42:44.502Z,0.00
2019-02-22T02:43:44.482Z,0.00
2019-02-22T02:44:44.471Z,0.00
2019-02-22T02:45:44.497Z,0.00
2019-02-22T02:46:44.456Z,0.00
2019-02-22T02:47:44.458Z,0.00
2019-02-22T02:48:44.438Z,0.00
2019-02-22T02:49:44.418Z,0.00
2019-02-22T02:50:44.408Z,0.00
2019-02-22T02:51:44.405Z,0.00
2019-02-22T02:52:44.406Z,0.00
2019-02-22T02:53:44.385Z,0.00
2019-02-22T02:54:44.361Z,0.00
2019-02-22T02:55:44.367Z,0.00
2019-02-22T02:56:46.242Z,0.00
2019-02-22T02:57:44.395Z,0.00
2019-02-22T02:58:44.325Z,0.00
2019-02-22T02:59:44.342Z,0.00
2019-02-22T03:00:44.294Z,0.00
2019-02-22T03:01:44.357Z,0.00
2019-02-22T03:02:44.281Z,0.00
2019-02-22T03:03:44.267Z,0.00
2019-02-22T03:04:44.271Z,0.00
2019-02-22T03:05:44.242Z,0.00
2019-02-22T03:06:44.238Z,0.00
2019-02-22T03:07:44.253Z,0.00
2019-02-22T03:08:44.209Z,0.00
2019-02-22T03:09:44.197Z,0.00
2019-02-22T03:10:44.202Z,0.00
2019-02-22T03:11:44.175Z,0.00
2019-02-22T03:12:44.165Z,0.00
2019-02-22T03:13:44.160Z,0.00
2019-02-22T03:14:44.210Z,0.00
2019-02-22T03:15:44.131Z,0.00
2019-02-22T03:16:44.121Z,0.00
2019-02-22T03:17:44.114Z,0.00
2019-02-22T03:18:44.101Z,0.00
2019-02-22T03:19:44.118Z,0.00
2019-02-22T03:20:44.082Z,0.00
2019-02-22T03:21:44.062Z,0.00
2019-02-22T03:22:44.071Z,0.00
2019-02-22T03:23:44.053Z,0.00
2019-02-22T03:24:44.059Z,0.00
2019-02-22T03:25:44.043Z,0.00
2019-02-22T03:26:44.012Z,0.00
2019-02-22T03:27:44.002Z,0.00
2019-02-22T03:28:43.986Z,0.00
2019-02-22T03:29:43.991Z,0.00
2019-02-22T03:30:43.989Z,0.00
2019-02-22T03:31:43.962Z,0.00
2019-02-22T03:32:43.945Z,0.00
2019-02-22T03:33:43.935Z,0.00
2019-02-22T03:34:43.920Z,0.00
2019-02-22T03:35:43.958Z,0.00
2019-02-22T03:36:43.906Z,0.00
2019-02-22T03:37:43.894Z,0.00
2019-02-22T03:38:43.900Z,0.00
2019-02-22T03:39:43.874Z,0.00
2019-02-22T03:40:43.856Z,0.00
2019-02-22T03:41:43.861Z,0.00
2019-02-22T03:42:43.845Z,0.00
2019-02-22T03:43:43.830Z,0.00
2019-02-22T03:44:43.830Z,0.00
2019-02-22T03:45:43.806Z,0.00
2019-02-22T03:46:43.810Z,0.00
2019-02-22T03:47:43.803Z,0.00
2019-02-22T03:48:43.771Z,0.00
2019-02-22T03:49:43.781Z,0.00
2019-02-22T03:50:43.790Z,0.00
2019-02-22T03:51:43.844Z,0.00
2019-02-22T03:52:43.746Z,0.00
2019-02-22T03:53:43.724Z,0.00
2019-02-22T03:54:43.711Z,0.00
2019-02-22T03:55:43.694Z,0.00
2019-02-22T03:56:43.680Z,0.00
2019-02-22T03:57:43.695Z,0.00
2019-02-22T03:58:43.689Z,0.00
2019-02-22T03:59:43.658Z,0.00
2019-02-22T04:00:43.647Z,0.00
2019-02-22T04:01:43.643Z,0.00
2019-02-22T04:02:43.637Z,0.00
2019-02-22T04:03:43.603Z,0.00
2019-02-22T04:04:43.595Z,0.00
2019-02-22T04:05:43.594Z,0.00
2019-02-22T04:06:43.571Z,0.00
2019-02-22T04:07:43.579Z,0.00
2019-02-22T04:08:43.557Z,0.00
2019-02-22T04:09:43.540Z,0.00
2019-02-22T04:10:43.533Z,0.00
2019-02-22T04:11:46.042Z,0.00
2019-02-22T04:12:43.557Z,0.00
2019-02-22T04:13:43.496Z,0.00
2019-02-22T04:14:43.483Z,0.00
2019-02-22T04:15:43.473Z,0.00
2019-02-22T04:16:43.476Z,0.00
2019-02-22T04:17:43.454Z,0.00
2019-02-22T04:18:43.471Z,0.00
2019-02-22T04:19:43.427Z,0.00
2019-02-22T04:20:43.413Z,0.00
2019-02-22T04:21:43.410Z,0.00
2019-02-22T04:22:44.434Z,0.00
2019-02-22T04:23:43.409Z,0.00
2019-02-22T04:24:43.369Z,0.00
2019-02-22T04:25:43.366Z,0.00
2019-02-22T04:26:43.353Z,0.00
2019-02-22T04:27:43.336Z,0.00
2019-02-22T04:28:43.379Z,0.00
2019-02-22T04:29:43.319Z,0.00
2019-02-22T04:30:43.316Z,0.00
2019-02-22T04:31:43.315Z,0.00
2019-02-22T04:32:43.295Z,0.00
2019-02-22T04:33:43.276Z,0.00
2019-02-22T04:34:43.315Z,0.00
2019-02-22T04:35:43.261Z,0.00
2019-02-22T04:36:43.245Z,0.00
2019-02-22T04:37:43.231Z,0.00
2019-02-22T04:38:43.226Z,0.00
2019-02-22T04:39:43.232Z,0.00
2019-02-22T04:40:43.196Z,0.00
2019-02-22T04:41:43.186Z,0.00
2019-02-22T04:42:43.211Z,0.00
2019-02-22T04:43:43.164Z,0.00
2019-02-22T04:44:43.198Z,0.00
2019-02-22T04:45:43.145Z,0.00
2019-02-22T04:46:43.135Z,0.00
2019-02-22T04:47:43.123Z,0.00
2019-02-22T04:48:43.107Z,0.00
2019-02-22T04:49:43.113Z,0.00
2019-02-22T04:50:43.109Z,0.00
2019-02-22T04:51:43.108Z,0.00
2019-02-22T04:52:43.065Z,0.00
2019-02-22T04:53:43.052Z,0.00
2019-02-22T04:54:43.040Z,0.00
2019-02-22T04:55:43.084Z,0.00
2019-02-22T04:56:43.027Z,0.00
2019-02-22T04:57:43.015Z,0.00
2019-02-22T04:58:42.998Z,0.00
2019-02-22T04:59:42.982Z,0.00
2019-02-22T05:00:43.004Z,0.00
2019-02-22T05:01:42.965Z,0.00
2019-02-22T05:02:42.968Z,0.00
2019-02-22T05:03:42.943Z,0.00
2019-02-22T05:04:42.933Z,0.00
2019-02-22T05:05:42.917Z,0.00
2019-02-22T05:06:42.930Z,0.00
2019-02-22T05:07:42.899Z,0.00
2019-02-22T05:08:42.894Z,0.00
2019-02-22T05:09:42.893Z,0.00
2019-02-22T05:10:42.867Z,0.00
2019-02-22T05:11:42.997Z,0.00
2019-02-22T05:12:42.869Z,0.00
2019-02-22T05:13:42.836Z,0.00
2019-02-22T05:14:42.820Z,0.00
2019-02-22T05:15:42.807Z,0.00
2019-02-22T05:16:42.833Z,0.00
2019-02-22T05:17:42.790Z,0.00
2019-02-22T05:18:42.775Z,0.00
2019-02-22T05:19:42.770Z,0.00
2019-02-22T05:20:42.751Z,0.00
2019-02-22T05:21:42.909Z,0.00
2019-02-22T05:22:42.761Z,0.00
2019-02-22T05:23:42.721Z,0.00
2019-02-22T05:24:42.712Z,0.00
2019-02-22T05:25:42.707Z,0.00
2019-02-22T05:26:42.687Z,0.00
2019-02-22T05:27:42.705Z,0.00
2019-02-22T05:28:42.665Z,0.00
2019-02-22T05:29:42.656Z,0.00
2019-02-22T05:30:42.646Z,0.00
2019-02-22T05:31:42.632Z,0.00
2019-02-22T05:32:42.703Z,0.00
2019-02-22T05:33:42.611Z,0.00
2019-02-22T05:34:42.601Z,0.00
2019-02-22T05:35:42.621Z,0.00
2019-02-22T05:36:44.263Z,0.00
2019-02-22T05:37:42.592Z,0.00
2019-02-22T05:38:42.559Z,0.00
2019-02-22T05:39:42.553Z,0.00
2019-02-22T05:40:42.531Z,0.00
2019-02-22T05:41:42.522Z,0.00
2019-02-22T05:42:42.533Z,0.00
2019-02-22T05:43:43.349Z,0.00
2019-02-22T05:44:42.505Z,0.00
2019-02-22T05:45:42.479Z,0.00
2019-02-22T05:46:42.474Z,0.00
2019-02-22T05:47:42.470Z,0.00
2019-02-22T05:48:42.451Z,0.00
2019-02-22T05:49:42.456Z,0.00
2019-02-22T05:50:42.423Z,0.00
2019-02-22T05:51:42.426Z,0.00
2019-02-22T05:52:42.410Z,0.00
2019-02-22T05:53:42.413Z,0.00
2019-02-22T05:54:42.382Z,0.00
2019-02-22T05:55:44.290Z,0.00
2019-02-22T05:56:42.365Z,0.00
2019-02-22T05:57:42.361Z,0.00
2019-02-22T05:58:42.387Z,4.00
2019-02-22T05:59:42.331Z,0.00
2019-02-22T06:00:42.318Z,0.00
2019-02-22T06:01:42.302Z,0.00
2019-02-22T06:02:42.295Z,4.00
2019-02-22T06:03:42.319Z,0.00
2019-02-22T06:04:42.313Z,4.00
2019-02-22T06:05:42.257Z,4.00
2019-02-22T06:06:42.249Z,4.00
2019-02-22T06:07:42.239Z,4.00
2019-02-22T06:08:42.276Z,8.00
2019-02-22T06:09:42.233Z,4.00
2019-02-22T06:10:42.204Z,8.00
2019-02-22T06:11:42.258Z,8.00
2019-02-22T06:12:42.182Z,8.00
2019-02-22T06:13:42.169Z,8.00
2019-02-22T06:14:42.179Z,12.00
2019-02-22T06:15:42.146Z,12.00
2019-02-22T06:16:42.143Z,12.00
2019-02-22T06:17:42.125Z,16.00
2019-02-22T06:18:42.116Z,20.00
2019-02-22T06:19:42.135Z,20.00
2019-02-22T06:20:42.095Z,16.00
2019-02-22T06:21:42.092Z,20.00
2019-02-22T06:22:42.074Z,16.00
2019-02-22T06:23:42.076Z,20.00
2019-02-22T06:24:42.055Z,24.00
2019-02-22T06:25:42.060Z,24.00
2019-02-22T06:26:42.027Z,28.00
2019-02-22T06:27:42.022Z,24.00
2019-02-22T06:28:42.016Z,24.00
2019-02-22T06:29:41.995Z,24.00
2019-02-22T06:30:42.001Z,20.00
2019-02-22T06:31:41.971Z,20.00
2019-02-22T06:32:42.406Z,24.00
2019-02-22T06:33:41.952Z,24.00
2019-02-22T06:34:41.951Z,20.00
2019-02-22T06:35:41.942Z,20.00
2019-02-22T06:36:41.944Z,28.00
2019-02-22T06:37:41.904Z,24.00
2019-02-22T06:38:41.913Z,28.00
2019-02-22T06:39:41.894Z,24.00
2019-02-22T06:40:41.903Z,28.00
2019-02-22T06:41:41.859Z,24.00
2019-02-22T06:42:45.750Z,20.00
2019-02-22T06:43:41.846Z,24.00
2019-02-22T06:44:41.829Z,24.00
2019-02-22T06:45:41.826Z,20.00
2019-02-22T06:46:41.824Z,28.00
2019-02-22T06:47:41.801Z,32.00
2019-02-22T06:48:41.786Z,28.00
2019-02-22T06:49:44.344Z,36.00
2019-02-22T06:50:41.765Z,36.00
2019-02-22T06:51:41.772Z,40.00
2019-02-22T06:52:41.738Z,44.00
2019-02-22T06:53:41.751Z,48.00
2019-02-22T06:54:41.720Z,52.00
2019-02-22T06:55:41.715Z,48.00
2019-02-22T06:56:41.721Z,48.00
2019-02-22T06:57:41.698Z,48.00
2019-02-22T06:58:41.692Z,48.00
2019-02-22T06:59:41.684Z,56.00
2019-02-22T07:00:41.676Z,56.00
2019-02-22T07:01:41.650Z,52.00
2019-02-22T07:02:41.666Z,56.00
2019-02-22T07:03:41.696Z,52.00
2019-02-22T07:04:41.638Z,60.00
2019-02-22T07:05:41.631Z,56.00
2019-02-22T07:06:41.584Z,64.00
2019-02-22T07:07:41.604Z,52.00
2019-02-22T07:08:41.566Z,56.00
2019-02-22T07:09:41.565Z,56.00
2019-02-22T07:10:41.546Z,56.00
2019-02-22T07:11:41.552Z,64.00
2019-02-22T07:12:41.701Z,68.00
2019-02-22T07:13:41.509Z,92.00
2019-02-22T07:14:41.499Z,100.00
2019-02-22T07:15:41.489Z,92.00
2019-02-22T07:16:41.478Z,76.00
2019-02-22T07:17:41.523Z,76.00
2019-02-22T07:18:41.475Z,80.00
2019-02-22T07:19:41.469Z,84.00
2019-02-22T07:20:41.444Z,80.00
2019-02-22T07:21:52.089Z,72.00
2019-02-22T07:22:42.407Z,68.00
2019-02-22T07:23:41.468Z,72.00
2019-02-22T07:24:41.387Z,80.00
2019-02-22T07:25:41.396Z,68.00
2019-02-22T07:26:41.397Z,60.00
2019-02-22T07:27:41.380Z,60.00
2019-02-22T07:28:41.449Z,56.00
2019-02-22T07:29:41.354Z,56.00
2019-02-22T07:30:41.321Z,64.00
2019-02-22T07:31:41.311Z,92.00
2019-02-22T07:32:41.382Z,120.00
2019-02-22T07:33:41.378Z,132.00
2019-02-22T07:34:41.313Z,124.00
2019-02-22T07:35:41.290Z,156.00
2019-02-22T07:36:41.264Z,176.00
2019-02-22T07:37:41.253Z,196.00
2019-02-22T07:38:41.249Z,220.00
2019-02-22T07:39:41.249Z,236.00
2019-02-22T07:40:41.219Z,232.00
2019-02-22T07:41:41.206Z,208.00
2019-02-22T07:42:41.208Z,188.00
2019-02-22T07:43:41.181Z,184.00
2019-02-22T07:44:41.200Z,168.00
2019-02-22T07:45:41.207Z,144.00
2019-02-22T07:46:41.190Z,136.00
2019-02-22T07:47:41.211Z,128.00
2019-02-22T07:48:41.123Z,88.00
2019-02-22T07:49:41.140Z,76.00
2019-02-22T07:50:41.106Z,64.00
2019-02-22T07:51:41.091Z,64.00
2019-02-22T07:52:41.080Z,68.00
2019-02-22T07:53:41.086Z,68.00
2019-02-22T07:54:41.055Z,60.00
2019-02-22T07:55:41.056Z,52.00
2019-02-22T07:56:41.038Z,48.00
2019-02-22T07:57:41.032Z,52.00
2019-02-22T07:58:41.052Z,44.00
2019-02-22T07:59:41.011Z,48.00
2019-02-22T08:00:41.020Z,52.00
2019-02-22T08:01:47.431Z,60.00
2019-02-22T08:02:41.970Z,72.00
2019-02-22T08:03:40.997Z,84.00
2019-02-22T08:04:40.954Z,96.00
2019-02-22T08:05:40.945Z,104.00
2019-02-22T08:06:42.525Z,104.00
2019-02-22T08:07:40.917Z,104.00
2019-02-22T08:08:40.904Z,100.00
2019-02-22T08:09:40.915Z,108.00
2019-02-22T08:10:40.886Z,116.00
2019-02-22T08:11:40.870Z,120.00
2019-02-22T08:12:40.858Z,120.00
2019-02-22T08:13:40.853Z,124.00
2019-02-22T08:14:40.869Z,132.00
2019-02-22T08:15:40.842Z,144.00
2019-02-22T08:16:40.817Z,136.00
2019-02-22T08:17:40.809Z,132.00
2019-02-22T08:18:40.795Z,128.00
2019-02-22T08:19:40.811Z,116.00
2019-02-22T08:20:40.776Z,108.00
2019-02-22T08:21:40.761Z,104.00
2019-02-22T08:22:40.748Z,108.00
2019-02-22T08:23:40.743Z,108.00
2019-02-22T08:24:40.771Z,116.00
2019-02-22T08:25:40.729Z,120.00
2019-02-22T08:26:40.732Z,128.00
2019-02-22T08:27:52.752Z,132.00
2019-02-22T08:28:41.683Z,124.00
2019-02-22T08:29:40.671Z,116.00
2019-02-22T08:30:40.696Z,104.00
2019-02-22T08:31:40.663Z,96.00
2019-02-22T08:32:40.646Z,92.00
2019-02-22T08:33:40.634Z,88.00
2019-02-22T08:34:40.620Z,84.00
2019-02-22T08:35:40.614Z,88.00
2019-02-22T08:36:40.616Z,92.00
2019-02-22T08:37:40.582Z,100.00
2019-02-22T08:38:40.575Z,112.00
2019-02-22T08:39:40.583Z,112.00
2019-02-22T08:40:40.549Z,112.00
2019-02-22T08:41:40.572Z,112.00
2019-02-22T08:42:40.535Z,108.00
2019-02-22T08:43:40.521Z,104.00
2019-02-22T08:44:40.505Z,104.00
2019-02-22T08:45:40.501Z,100.00
2019-02-22T08:46:40.517Z,104.00
2019-02-22T08:47:40.484Z,104.00
2019-02-22T08:48:40.469Z,100.00
2019-02-22T08:49:40.457Z,88.00
2019-02-22T08:50:40.445Z,92.00
2019-02-22T08:51:40.472Z,96.00
2019-02-22T08:52:40.424Z,104.00
2019-02-22T08:53:40.415Z,108.00
2019-02-22T08:54:46.953Z,104.00
2019-02-22T08:55:41.383Z,100.00
2019-02-22T08:56:40.398Z,100.00
2019-02-22T08:57:40.365Z,96.00
2019-02-22T08:58:40.367Z,104.00
2019-02-22T08:59:40.347Z,104.00
2019-02-22T09:00:40.332Z,116.00
2019-02-22T09:01:40.390Z,112.00
2019-02-22T09:02:40.309Z,112.00
2019-02-22T09:03:49.893Z,112.00
2019-02-22T09:04:41.287Z,108.00
2019-02-22T09:05:40.279Z,104.00
2019-02-22T09:06:40.263Z,112.00
2019-02-22T09:07:40.271Z,116.00
2019-02-22T09:08:40.253Z,120.00
2019-02-22T09:09:40.232Z,124.00
2019-02-22T09:10:40.220Z,132.00
2019-02-22T09:11:40.212Z,132.00
2019-02-22T09:12:40.223Z,140.00
2019-02-22T09:13:43.472Z,148.00
2019-02-22T09:14:40.182Z,156.00
2019-02-22T09:15:40.164Z,156.00
2019-02-22T09:16:40.190Z,152.00
2019-02-22T09:17:40.164Z,152.00
2019-02-22T09:18:40.139Z,148.00
2019-02-22T09:19:40.124Z,160.00
2019-02-22T09:20:40.143Z,172.00
2019-02-22T09:21:40.104Z,176.00
2019-02-22T09:22:40.108Z,184.00
2019-02-22T09:23:40.120Z,200.00
2019-02-22T09:24:40.064Z,212.00
2019-02-22T09:25:40.054Z,232.00
2019-02-22T09:26:40.047Z,272.00
2019-02-22T09:27:40.054Z,288.00
2019-02-22T09:28:40.021Z,284.00
2019-02-22T09:29:40.014Z,304.00
2019-02-22T09:30:39.995Z,328.00
2019-02-22T09:31:39.983Z,368.00
2019-02-22T09:32:39.991Z,384.00
2019-02-22T09:33:39.979Z,384.00
2019-02-22T09:34:39.961Z,384.00
2019-02-22T09:35:39.951Z,388.00
2019-02-22T09:36:39.955Z,388.00
2019-02-22T09:37:39.941Z,384.00
2019-02-22T09:38:39.917Z,360.00
2019-02-22T09:39:39.903Z,340.00
2019-02-22T09:40:39.888Z,356.00
2019-02-22T09:41:39.890Z,372.00
2019-02-22T09:42:39.886Z,384.00
2019-02-22T09:43:39.861Z,396.00
2019-02-22T09:44:39.858Z,412.00
2019-02-22T09:45:39.848Z,388.00
2019-02-22T09:46:39.816Z,356.00
2019-02-22T09:47:39.842Z,340.00
2019-02-22T09:48:39.798Z,324.00
2019-02-22T09:49:39.791Z,296.00
2019-02-22T09:50:39.774Z,284.00
2019-02-22T09:51:41.239Z,300.00
2019-02-22T09:52:39.759Z,324.00
2019-02-22T09:53:39.762Z,340.00
2019-02-22T09:54:39.741Z,320.00
2019-02-22T09:55:39.719Z,304.00
2019-02-22T09:56:39.719Z,320.00
2019-02-22T09:57:39.704Z,356.00
2019-02-22T09:58:39.720Z,384.00
2019-02-22T09:59:39.717Z,408.00
2019-02-22T10:00:39.741Z,408.00
2019-02-22T10:01:39.661Z,380.00
2019-02-22T10:02:39.668Z,364.00
2019-02-22T10:03:39.770Z,368.00
2019-02-22T10:04:39.662Z,332.00
2019-02-22T10:05:39.649Z,320.00
2019-02-22T10:06:39.616Z,320.00
2019-02-22T10:07:39.594Z,316.00
2019-02-22T10:08:39.618Z,328.00
2019-02-22T10:09:39.620Z,344.00
2019-02-22T10:10:39.585Z,352.00
2019-02-22T10:11:39.564Z,336.00
2019-02-22T10:12:39.558Z,312.00
2019-02-22T10:13:39.551Z,272.00
2019-02-22T10:14:39.549Z,236.00
2019-02-22T10:15:39.532Z,236.00
2019-02-22T10:16:39.502Z,256.00
2019-02-22T10:17:39.484Z,284.00
2019-02-22T10:18:39.469Z,316.00
2019-02-22T10:19:39.481Z,316.00
2019-02-22T10:20:39.445Z,312.00
2019-02-22T10:21:39.455Z,288.00
2019-02-22T10:22:39.456Z,264.00
2019-02-22T10:23:39.418Z,256.00
2019-02-22T10:24:39.403Z,268.00
2019-02-22T10:25:39.388Z,280.00
2019-02-22T10:26:39.378Z,288.00
2019-02-22T10:27:39.368Z,272.00
2019-02-22T10:28:39.387Z,236.00
2019-02-22T10:29:39.355Z,204.00
2019-02-22T10:30:39.336Z,192.00
2019-02-22T10:31:39.321Z,196.00
2019-02-22T10:32:39.318Z,192.00
2019-02-22T10:33:39.326Z,196.00
2019-02-22T10:34:39.296Z,196.00
2019-02-22T10:35:39.279Z,200.00
2019-02-22T10:36:45.078Z,208.00
2019-02-22T10:37:40.261Z,196.00
2019-02-22T10:38:39.265Z,192.00
2019-02-22T10:39:39.269Z,188.00
2019-02-22T10:40:39.459Z,184.00
2019-02-22T10:41:39.220Z,184.00
2019-02-22T10:42:39.212Z,192.00
2019-02-22T10:43:39.190Z,192.00
2019-02-22T10:44:39.180Z,196.00
2019-02-22T10:45:39.191Z,212.00
2019-02-22T10:46:39.156Z,220.00
2019-02-22T10:47:39.147Z,220.00
2019-02-22T10:48:39.137Z,228.00
2019-02-22T10:49:39.122Z,220.00
2019-02-22T10:50:39.141Z,220.00
2019-02-22T10:51:39.106Z,220.00
2019-02-22T10:52:39.093Z,228.00
2019-02-22T10:53:39.079Z,232.00
2019-02-22T10:54:39.074Z,236.00
2019-02-22T10:55:39.089Z,244.00
2019-02-22T10:56:39.664Z,248.00
2019-02-22T10:57:39.044Z,240.00
2019-02-22T10:58:39.033Z,240.00
2019-02-22T10:59:39.020Z,244.00
2019-02-22T11:00:39.010Z,248.00
2019-02-22T11:01:39.020Z,248.00
2019-02-22T11:02:38.990Z,248.00
2019-02-22T11:03:39.051Z,252.00
2019-02-22T11:04:38.968Z,268.00
2019-02-22T11:05:38.949Z,276.00
2019-02-22T11:06:38.981Z,268.00
2019-02-22T11:07:38.937Z,268.00
2019-02-22T11:08:38.925Z,276.00
2019-02-22T11:09:38.908Z,280.00
2019-02-22T11:10:38.898Z,288.00
2019-02-22T11:11:38.921Z,300.00
2019-02-22T11:12:38.877Z,316.00
2019-02-22T11:13:38.894Z,328.00
2019-02-22T11:14:38.856Z,344.00
2019-02-22T11:15:38.843Z,360.00
2019-02-22T11:16:38.833Z,376.00
2019-02-22T11:17:38.822Z,388.00
2019-02-22T11:18:39.495Z,400.00
2019-02-22T11:19:38.866Z,388.00
2019-02-22T11:20:38.792Z,356.00
2019-02-22T11:21:38.782Z,300.00
2019-02-22T11:22:38.766Z,260.00
2019-02-22T11:23:38.755Z,236.00
2019-02-22T11:24:38.769Z,228.00
2019-02-22T11:25:38.743Z,216.00
2019-02-22T11:26:38.752Z,204.00
2019-02-22T11:27:38.724Z,192.00
2019-02-22T11:28:38.708Z,188.00
2019-02-22T11:29:38.713Z,192.00
2019-02-22T11:30:38.682Z,196.00
2019-02-22T11:31:38.727Z,196.00
2019-02-22T11:32:38.661Z,204.00
2019-02-22T11:33:38.654Z,212.00
2019-02-22T11:34:38.675Z,216.00
2019-02-22T11:35:38.629Z,216.00
2019-02-22T11:36:38.619Z,220.00
2019-02-22T11:37:38.612Z,224.00
2019-02-22T11:38:38.607Z,232.00
2019-02-22T11:39:38.585Z,244.00
2019-02-22T11:40:38.589Z,256.00
2019-02-22T11:41:38.571Z,284.00
2019-02-22T11:42:38.557Z,300.00
2019-02-22T11:43:38.558Z,288.00
2019-02-22T11:44:40.449Z,280.00
2019-02-22T11:45:38.541Z,280.00
2019-02-22T11:46:38.509Z,272.00
2019-02-22T11:47:38.505Z,264.00
2019-02-22T11:48:38.495Z,256.00
2019-02-22T11:49:38.475Z,248.00
2019-02-22T11:50:38.496Z,244.00
2019-02-22T11:51:38.451Z,240.00
2019-02-22T11:52:38.446Z,232.00
2019-02-22T11:53:38.439Z,232.00
2019-02-22T11:54:38.427Z,232.00
2019-02-22T11:55:38.407Z,236.00
2019-02-22T11:56:38.427Z,244.00
2019-02-22T11:57:38.391Z,236.00
2019-02-22T11:58:38.374Z,228.00
2019-02-22T11:59:38.376Z,224.00
2019-02-22T12:00:38.360Z,232.00
2019-02-22T12:01:38.368Z,240.00
2019-02-22T12:02:38.339Z,240.00
2019-02-22T12:03:38.333Z,228.00
2019-02-22T12:04:38.310Z,224.00
2019-02-22T12:05:38.299Z,220.00
2019-02-22T12:06:38.329Z,220.00
2019-02-22T12:07:38.280Z,220.00
2019-02-22T12:08:38.271Z,220.00
2019-02-22T12:09:38.274Z,220.00
2019-02-22T12:10:38.247Z,224.00
2019-02-22T12:11:38.245Z,220.00
2019-02-22T12:12:38.251Z,224.00
2019-02-22T12:13:38.218Z,224.00
2019-02-22T12:14:38.203Z,220.00
2019-02-22T12:15:38.206Z,220.00
2019-02-22T12:16:38.179Z,228.00
2019-02-22T12:17:38.191Z,220.00
2019-02-22T12:18:38.163Z,216.00
2019-02-22T12:19:38.147Z,220.00
2019-02-22T12:20:38.175Z,220.00
2019-02-22T12:21:38.129Z,220.00
2019-02-22T12:22:38.146Z,228.00
2019-02-22T12:23:38.109Z,232.00
2019-02-22T12:24:38.104Z,236.00
2019-02-22T12:25:38.158Z,228.00
2019-02-22T12:26:38.077Z,232.00
2019-02-22T12:27:38.069Z,232.00
2019-02-22T12:28:38.074Z,236.00
2019-02-22T12:29:38.054Z,240.00
2019-02-22T12:30:38.033Z,248.00
2019-02-22T12:31:38.031Z,248.00
2019-02-22T12:32:39.603Z,256.00
2019-02-22T12:33:38.022Z,260.00
2019-02-22T12:34:38.044Z,256.00
2019-02-22T12:35:37.975Z,252.00
2019-02-22T12:36:37.968Z,240.00
2019-02-22T12:37:37.959Z,228.00
2019-02-22T12:38:37.941Z,208.00
2019-02-22T12:39:37.957Z,196.00
2019-02-22T12:40:37.935Z,196.00
2019-02-22T12:41:37.929Z,200.00
2019-02-22T12:42:37.912Z,204.00
2019-02-22T12:43:37.892Z,204.00
2019-02-22T12:44:37.876Z,204.00
2019-02-22T12:45:37.897Z,208.00
2019-02-22T12:46:37.859Z,212.00
2019-02-22T12:47:37.850Z,216.00
2019-02-22T12:48:37.834Z,220.00
2019-02-22T12:49:40.147Z,220.00
2019-02-22T12:50:37.839Z,220.00
2019-02-22T12:51:37.808Z,224.00
2019-02-22T12:52:37.795Z,224.00
2019-02-22T12:53:37.798Z,224.00
2019-02-22T12:54:37.766Z,224.00
2019-02-22T12:55:37.811Z,224.00
2019-02-22T12:56:57.144Z,240.00